Pagrindinis puslapis
METAR-TAF:

METAR-TAF

Oro uostai :

Hyannis, Masačusetsas, Jungtinės Amerikos Valstijos

platuma: 41-40-19N, ilguma: 070-16-11W, Aukštis: 15 m

Dabartinis oras

Ataskaita buvo paskelbta 32 minutes, ne 06:56 UTC
Vėjas 14 kt iš Vakarų/Pietvakarių su gūsio iki 22 kt
Temperatūra 0°C
Drėgmė 37%
Slėgis 1006 hPa
Matomumas: 16.1 km
Giedras dangus

METAR: KHYA 280656Z AUTO 25014G22KT 10SM CLR 00/M13 A2970 RMK AO2 PK WND 25027/0608 SLP057 T00001128

Laikas: 02:28 (07:28 UTC)

Prognozė

Ataskaita buvo paskelbta 2 valandos ir 4 minutes, ne 05:24 UTC
Prognozė galioja nuo 28 metu 06 UTC su 29 metu 06 UTC
Vėjas 18 kt iš Vakarų su gūsio iki 30 kt
Matomumas: 10 km
Išsisklaidę debesys ne aukštis 5000 ft
Nuo 29 metu 0200 UTC
Vėjas 8 kt iš Vakarų
Matomumas: 10 km
Išsisklaidę debesys ne aukštis 6000 ft

TAF: KHYA 280524Z 2806/2906 27018G30KT P6SM SCT050 FM290200 26008KT P6SM SCT060

Orai ataskaitas ir orų prognozės (METAR, TAF).

turimą stotys yra geltonos ir raudonos taškus žemėlapyje.

Perkelti pele per norėdami pamatyti stoties vardą.

Tada spustelėkite, norėdami matyti oro stebėjimo ir prognozės.

Norėdami pakeisti žemėlapį: spustelėkite ant žalios mygtukų su juodo kryžiaus žemyn,; žalią mygtuką su brūkšneliu, jei norite nutolinti; arba žalių rodyklių gretimoms žemėlapius.


METAR-TAF: